sensor_id;sensor_type;location;lat;lon;timestamp;P1;durP1;ratioP1;P2;durP2;ratioP2
42518;SDS011;28147;47.520;18.920;2023-12-29T00:06:10;10.07;;;6.00;;
42518;SDS011;28147;47.520;18.920;2023-12-29T00:13:17;12.93;;;6.07;;
42518;SDS011;28147;47.520;18.920;2023-12-29T00:15:47;11.40;;;6.68;;
42518;SDS011;28147;47.520;18.920;2023-12-29T00:23:09;12.35;;;7.07;;
42518;SDS011;28147;47.520;18.920;2023-12-29T00:32:23;14.07;;;6.50;;
42518;SDS011;28147;47.520;18.920;2023-12-29T00:39:12;9.43;;;6.22;;
42518;SDS011;28147;47.520;18.920;2023-12-29T00:50:22;10.55;;;6.50;;
42518;SDS011;28147;47.520;18.920;2023-12-29T00:52:47;13.55;;;7.10;;
42518;SDS011;28147;47.520;18.920;2023-12-29T00:55:13;10.40;;;6.22;;
42518;SDS011;28147;47.520;18.920;2023-12-29T00:57:38;11.90;;;6.45;;
42518;SDS011;28147;47.520;18.920;2023-12-29T01:00:04;12.93;;;7.13;;
42518;SDS011;28147;47.520;18.920;2023-12-29T01:04:04;19.67;;;7.63;;
42518;SDS011;28147;47.520;18.920;2023-12-29T01:06:30;14.07;;;8.80;;
42518;SDS011;28147;47.520;18.920;2023-12-29T01:08:55;16.50;;;7.97;;
42518;SDS011;28147;47.520;18.920;2023-12-29T01:11:28;17.88;;;9.10;;
42518;SDS011;28147;47.520;18.920;2023-12-29T01:13:54;13.40;;;8.52;;
42518;SDS011;28147;47.520;18.920;2023-12-29T01:24:42;12.95;;;6.45;;
42518;SDS011;28147;47.520;18.920;2023-12-29T01:27:08;12.10;;;7.03;;
42518;SDS011;28147;47.520;18.920;2023-12-29T01:29:33;10.55;;;6.13;;
42518;SDS011;28147;47.520;18.920;2023-12-29T01:31:58;11.40;;;6.55;;
42518;SDS011;28147;47.520;18.920;2023-12-29T01:34:36;12.85;;;6.40;;
42518;SDS011;28147;47.520;18.920;2023-12-29T01:37:02;12.95;;;7.00;;
42518;SDS011;28147;47.520;18.920;2023-12-29T01:44:19;10.43;;;6.55;;
42518;SDS011;28147;47.520;18.920;2023-12-29T01:47:45;11.25;;;6.40;;
42518;SDS011;28147;47.520;18.920;2023-12-29T01:51:20;11.93;;;6.60;;
42518;SDS011;28147;47.520;18.920;2023-12-29T01:54:10;12.85;;;6.32;;
42518;SDS011;28147;47.520;18.920;2023-12-29T01:56:37;11.27;;;6.15;;
42518;SDS011;28147;47.520;18.920;2023-12-29T01:59:03;8.73;;;5.47;;
42518;SDS011;28147;47.520;18.920;2023-12-29T02:01:29;13.02;;;6.75;;
42518;SDS011;28147;47.520;18.920;2023-12-29T02:03:54;11.38;;;6.57;;
42518;SDS011;28147;47.520;18.920;2023-12-29T02:23:40;10.38;;;6.03;;
42518;SDS011;28147;47.520;18.920;2023-12-29T02:33:05;11.63;;;6.35;;
42518;SDS011;28147;47.520;18.920;2023-12-29T02:53:42;12.00;;;6.00;;
42518;SDS011;28147;47.520;18.920;2023-12-29T03:59:42;18.83;;;9.88;;
42518;SDS011;28147;47.520;18.920;2023-12-29T04:21:54;16.05;;;8.95;;
42518;SDS011;28147;47.520;18.920;2023-12-29T04:25:04;15.85;;;8.95;;
42518;SDS011;28147;47.520;18.920;2023-12-29T04:27:30;13.38;;;8.48;;
42518;SDS011;28147;47.520;18.920;2023-12-29T04:29:55;17.23;;;10.10;;
42518;SDS011;28147;47.520;18.920;2023-12-29T04:32:21;16.70;;;8.80;;
42518;SDS011;28147;47.520;18.920;2023-12-29T04:34:46;14.70;;;8.77;;
42518;SDS011;28147;47.520;18.920;2023-12-29T04:37:49;13.85;;;8.55;;
42518;SDS011;28147;47.520;18.920;2023-12-29T04:40:16;12.07;;;7.60;;
42518;SDS011;28147;47.520;18.920;2023-12-29T04:42:41;14.07;;;8.02;;
42518;SDS011;28147;47.520;18.920;2023-12-29T04:45:06;13.02;;;8.20;;
42518;SDS011;28147;47.520;18.920;2023-12-29T04:47:32;17.27;;;8.95;;
42518;SDS011;28147;47.520;18.920;2023-12-29T04:49:57;14.85;;;8.30;;
42518;SDS011;28147;47.520;18.920;2023-12-29T04:52:22;14.13;;;8.95;;
42518;SDS011;28147;47.520;18.920;2023-12-29T04:54:48;13.02;;;8.32;;
42518;SDS011;28147;47.520;18.920;2023-12-29T04:57:13;15.80;;;8.32;;
42518;SDS011;28147;47.520;18.920;2023-12-29T04:59:39;15.48;;;8.25;;
42518;SDS011;28147;47.520;18.920;2023-12-29T05:03:54;14.82;;;8.57;;
42518;SDS011;28147;47.520;18.920;2023-12-29T05:06:19;18.02;;;10.05;;
42518;SDS011;28147;47.520;18.920;2023-12-29T05:10:44;19.92;;;10.32;;
42518;SDS011;28147;47.520;18.920;2023-12-29T05:13:10;15.70;;;9.30;;
42518;SDS011;28147;47.520;18.920;2023-12-29T05:15:35;12.98;;;8.40;;
42518;SDS011;28147;47.520;18.920;2023-12-29T05:18:00;19.35;;;9.45;;
42518;SDS011;28147;47.520;18.920;2023-12-29T05:20:26;16.83;;;9.35;;
42518;SDS011;28147;47.520;18.920;2023-12-29T05:23:00;15.32;;;9.18;;
42518;SDS011;28147;47.520;18.920;2023-12-29T05:25:36;16.17;;;9.00;;
42518;SDS011;28147;47.520;18.920;2023-12-29T05:28:01;15.23;;;8.55;;
42518;SDS011;28147;47.520;18.920;2023-12-29T05:33:28;19.33;;;9.45;;
42518;SDS011;28147;47.520;18.920;2023-12-29T05:35:53;19.20;;;9.25;;
42518;SDS011;28147;47.520;18.920;2023-12-29T05:38:18;19.40;;;9.65;;
42518;SDS011;28147;47.520;18.920;2023-12-29T05:40:43;14.48;;;7.97;;
42518;SDS011;28147;47.520;18.920;2023-12-29T05:46:27;18.17;;;8.75;;
42518;SDS011;28147;47.520;18.920;2023-12-29T05:52:59;13.27;;;8.27;;
42518;SDS011;28147;47.520;18.920;2023-12-29T05:55:24;13.73;;;7.55;;
42518;SDS011;28147;47.520;18.920;2023-12-29T05:58:48;15.05;;;8.43;;
42518;SDS011;28147;47.520;18.920;2023-12-29T06:14:32;14.30;;;8.27;;
42518;SDS011;28147;47.520;18.920;2023-12-29T06:16:57;14.10;;;8.15;;
42518;SDS011;28147;47.520;18.920;2023-12-29T06:36:01;14.63;;;7.78;;
42518;SDS011;28147;47.520;18.920;2023-12-29T06:38:26;13.05;;;8.27;;
42518;SDS011;28147;47.520;18.920;2023-12-29T06:44:08;12.52;;;7.45;;
42518;SDS011;28147;47.520;18.920;2023-12-29T06:50:35;14.27;;;8.20;;
42518;SDS011;28147;47.520;18.920;2023-12-29T06:53:02;12.88;;;7.32;;
42518;SDS011;28147;47.520;18.920;2023-12-29T07:01:40;15.82;;;7.38;;
42518;SDS011;28147;47.520;18.920;2023-12-29T07:06:41;11.40;;;6.63;;
42518;SDS011;28147;47.520;18.920;2023-12-29T07:09:07;11.40;;;6.43;;
42518;SDS011;28147;47.520;18.920;2023-12-29T07:35:03;14.23;;;7.15;;
42518;SDS011;28147;47.520;18.920;2023-12-29T07:37:38;11.93;;;5.80;;
42518;SDS011;28147;47.520;18.920;2023-12-29T07:40:04;12.68;;;7.47;;
42518;SDS011;28147;47.520;18.920;2023-12-29T07:46:05;14.80;;;6.95;;
42518;SDS011;28147;47.520;18.920;2023-12-29T07:48:30;12.48;;;7.50;;
42518;SDS011;28147;47.520;18.920;2023-12-29T07:50:56;12.40;;;6.78;;
42518;SDS011;28147;47.520;18.920;2023-12-29T07:53:24;16.52;;;8.68;;
42518;SDS011;28147;47.520;18.920;2023-12-29T07:55:49;13.45;;;8.10;;
42518;SDS011;28147;47.520;18.920;2023-12-29T07:59:17;14.10;;;8.15;;
42518;SDS011;28147;47.520;18.920;2023-12-29T08:02:25;12.18;;;7.43;;
42518;SDS011;28147;47.520;18.920;2023-12-29T08:04:50;10.68;;;6.53;;
42518;SDS011;28147;47.520;18.920;2023-12-29T08:07:16;10.63;;;7.32;;
42518;SDS011;28147;47.520;18.920;2023-12-29T08:09:41;15.00;;;8.65;;
42518;SDS011;28147;47.520;18.920;2023-12-29T08:12:06;12.88;;;8.60;;
42518;SDS011;28147;47.520;18.920;2023-12-29T08:14:32;17.20;;;8.88;;
42518;SDS011;28147;47.520;18.920;2023-12-29T08:16:57;16.95;;;8.43;;
42518;SDS011;28147;47.520;18.920;2023-12-29T08:19:23;13.98;;;8.35;;
42518;SDS011;28147;47.520;18.920;2023-12-29T08:21:48;13.05;;;8.68;;
42518;SDS011;28147;47.520;18.920;2023-12-29T08:24:13;14.90;;;8.70;;
42518;SDS011;28147;47.520;18.920;2023-12-29T08:26:45;15.80;;;9.18;;
42518;SDS011;28147;47.520;18.920;2023-12-29T08:29:12;15.13;;;8.88;;
42518;SDS011;28147;47.520;18.920;2023-12-29T08:31:38;12.43;;;8.30;;
42518;SDS011;28147;47.520;18.920;2023-12-29T08:34:04;15.73;;;9.00;;
42518;SDS011;28147;47.520;18.920;2023-12-29T08:36:29;12.68;;;8.57;;
42518;SDS011;28147;47.520;18.920;2023-12-29T08:38:54;13.20;;;8.38;;
42518;SDS011;28147;47.520;18.920;2023-12-29T08:41:21;15.68;;;9.18;;
42518;SDS011;28147;47.520;18.920;2023-12-29T08:43:46;13.80;;;8.07;;
42518;SDS011;28147;47.520;18.920;2023-12-29T08:46:12;13.85;;;7.95;;
42518;SDS011;28147;47.520;18.920;2023-12-29T08:48:37;13.35;;;7.90;;
42518;SDS011;28147;47.520;18.920;2023-12-29T08:51:02;11.40;;;7.82;;
42518;SDS011;28147;47.520;18.920;2023-12-29T08:53:27;14.32;;;8.32;;
42518;SDS011;28147;47.520;18.920;2023-12-29T08:55:56;15.32;;;7.07;;
42518;SDS011;28147;47.520;18.920;2023-12-29T08:58:21;12.25;;;7.35;;
42518;SDS011;28147;47.520;18.920;2023-12-29T09:00:46;13.05;;;6.47;;
42518;SDS011;28147;47.520;18.920;2023-12-29T09:03:12;12.52;;;7.45;;
42518;SDS011;28147;47.520;18.920;2023-12-29T09:05:37;12.57;;;7.10;;
42518;SDS011;28147;47.520;18.920;2023-12-29T09:08:02;12.27;;;7.38;;
42518;SDS011;28147;47.520;18.920;2023-12-29T09:10:28;12.18;;;6.13;;
42518;SDS011;28147;47.520;18.920;2023-12-29T09:12:53;10.73;;;6.43;;
42518;SDS011;28147;47.520;18.920;2023-12-29T09:15:19;10.65;;;6.75;;
42518;SDS011;28147;47.520;18.920;2023-12-29T09:17:45;12.88;;;7.22;;
42518;SDS011;28147;47.520;18.920;2023-12-29T09:20:11;11.05;;;7.82;;
42518;SDS011;28147;47.520;18.920;2023-12-29T09:22:36;10.60;;;6.72;;
42518;SDS011;28147;47.520;18.920;2023-12-29T09:25:01;12.05;;;7.00;;
42518;SDS011;28147;47.520;18.920;2023-12-29T09:27:27;13.38;;;7.65;;
42518;SDS011;28147;47.520;18.920;2023-12-29T09:29:52;11.23;;;7.07;;
42518;SDS011;28147;47.520;18.920;2023-12-29T09:32:17;9.38;;;5.93;;
42518;SDS011;28147;47.520;18.920;2023-12-29T09:34:43;11.98;;;7.20;;
42518;SDS011;28147;47.520;18.920;2023-12-29T09:37:08;11.98;;;6.45;;
42518;SDS011;28147;47.520;18.920;2023-12-29T09:39:34;10.40;;;5.93;;
42518;SDS011;28147;47.520;18.920;2023-12-29T09:41:59;9.02;;;5.70;;
42518;SDS011;28147;47.520;18.920;2023-12-29T09:44:25;13.95;;;6.93;;
42518;SDS011;28147;47.520;18.920;2023-12-29T09:46:55;14.93;;;7.40;;
42518;SDS011;28147;47.520;18.920;2023-12-29T09:49:25;11.45;;;6.50;;
42518;SDS011;28147;47.520;18.920;2023-12-29T09:51:56;11.05;;;6.97;;
42518;SDS011;28147;47.520;18.920;2023-12-29T09:54:23;12.68;;;6.82;;
42518;SDS011;28147;47.520;18.920;2023-12-29T09:56:49;18.20;;;9.88;;
42518;SDS011;28147;47.520;18.920;2023-12-29T09:59:16;12.73;;;7.55;;
42518;SDS011;28147;47.520;18.920;2023-12-29T10:01:41;12.82;;;8.02;;
42518;SDS011;28147;47.520;18.920;2023-12-29T10:04:10;14.98;;;8.90;;
42518;SDS011;28147;47.520;18.920;2023-12-29T10:06:38;16.55;;;9.15;;
42518;SDS011;28147;47.520;18.920;2023-12-29T10:09:10;12.90;;;7.55;;
42518;SDS011;28147;47.520;18.920;2023-12-29T10:11:37;11.38;;;7.13;;
42518;SDS011;28147;47.520;18.920;2023-12-29T10:16:56;14.60;;;7.72;;
42518;SDS011;28147;47.520;18.920;2023-12-29T10:22:06;11.80;;;7.72;;
42518;SDS011;28147;47.520;18.920;2023-12-29T10:24:36;13.65;;;7.75;;
42518;SDS011;28147;47.520;18.920;2023-12-29T10:27:02;12.95;;;7.57;;
42518;SDS011;28147;47.520;18.920;2023-12-29T10:29:27;11.93;;;6.80;;
42518;SDS011;28147;47.520;18.920;2023-12-29T10:31:53;13.05;;;7.75;;
42518;SDS011;28147;47.520;18.920;2023-12-29T10:34:19;13.50;;;7.50;;
42518;SDS011;28147;47.520;18.920;2023-12-29T10:36:55;11.48;;;7.25;;
42518;SDS011;28147;47.520;18.920;2023-12-29T10:39:21;11.82;;;6.63;;
42518;SDS011;28147;47.520;18.920;2023-12-29T10:41:47;11.45;;;6.90;;
42518;SDS011;28147;47.520;18.920;2023-12-29T10:44:12;11.68;;;7.05;;
42518;SDS011;28147;47.520;18.920;2023-12-29T10:46:38;10.35;;;6.18;;
42518;SDS011;28147;47.520;18.920;2023-12-29T10:49:10;10.73;;;6.40;;
42518;SDS011;28147;47.520;18.920;2023-12-29T10:51:37;9.82;;;6.10;;
42518;SDS011;28147;47.520;18.920;2023-12-29T10:54:03;9.98;;;6.10;;
42518;SDS011;28147;47.520;18.920;2023-12-29T10:56:29;10.70;;;5.75;;
42518;SDS011;28147;47.520;18.920;2023-12-29T10:59:02;10.68;;;6.53;;
42518;SDS011;28147;47.520;18.920;2023-12-29T11:01:30;9.18;;;5.57;;
42518;SDS011;28147;47.520;18.920;2023-12-29T11:04:00;9.43;;;5.72;;
42518;SDS011;28147;47.520;18.920;2023-12-29T11:06:27;8.57;;;5.47;;
42518;SDS011;28147;47.520;18.920;2023-12-29T11:08:53;9.20;;;5.97;;
42518;SDS011;28147;47.520;18.920;2023-12-29T11:11:19;9.10;;;4.65;;
42518;SDS011;28147;47.520;18.920;2023-12-29T11:13:48;8.98;;;4.25;;
42518;SDS011;28147;47.520;18.920;2023-12-29T11:16:14;8.70;;;4.40;;
42518;SDS011;28147;47.520;18.920;2023-12-29T11:18:42;8.43;;;5.43;;
42518;SDS011;28147;47.520;18.920;2023-12-29T11:21:09;11.23;;;6.22;;
42518;SDS011;28147;47.520;18.920;2023-12-29T11:23:35;11.75;;;6.10;;
42518;SDS011;28147;47.520;18.920;2023-12-29T11:28:55;9.38;;;5.38;;
42518;SDS011;28147;47.520;18.920;2023-12-29T11:31:20;8.23;;;5.05;;
42518;SDS011;28147;47.520;18.920;2023-12-29T11:33:49;8.50;;;4.88;;
42518;SDS011;28147;47.520;18.920;2023-12-29T11:36:18;8.73;;;5.28;;
42518;SDS011;28147;47.520;18.920;2023-12-29T11:39:36;10.52;;;5.03;;
42518;SDS011;28147;47.520;18.920;2023-12-29T11:42:05;8.40;;;4.55;;
42518;SDS011;28147;47.520;18.920;2023-12-29T11:44:37;8.93;;;5.20;;
42518;SDS011;28147;47.520;18.920;2023-12-29T11:47:03;8.85;;;5.10;;
42518;SDS011;28147;47.520;18.920;2023-12-29T11:49:42;15.50;;;4.97;;
42518;SDS011;28147;47.520;18.920;2023-12-29T11:52:34;7.80;;;4.68;;
42518;SDS011;28147;47.520;18.920;2023-12-29T11:55:12;6.70;;;4.45;;
42518;SDS011;28147;47.520;18.920;2023-12-29T11:57:39;7.85;;;4.85;;
42518;SDS011;28147;47.520;18.920;2023-12-29T12:00:06;9.05;;;4.40;;
42518;SDS011;28147;47.520;18.920;2023-12-29T12:02:32;7.10;;;4.63;;
42518;SDS011;28147;47.520;18.920;2023-12-29T12:04:58;8.80;;;5.30;;
42518;SDS011;28147;47.520;18.920;2023-12-29T12:09:49;9.68;;;5.45;;
42518;SDS011;28147;47.520;18.920;2023-12-29T12:12:15;11.68;;;5.43;;
42518;SDS011;28147;47.520;18.920;2023-12-29T12:15:03;7.63;;;4.95;;
42518;SDS011;28147;47.520;18.920;2023-12-29T12:17:49;8.15;;;5.03;;
42518;SDS011;28147;47.520;18.920;2023-12-29T12:20:15;10.52;;;5.43;;
42518;SDS011;28147;47.520;18.920;2023-12-29T12:22:41;6.93;;;4.95;;
42518;SDS011;28147;47.520;18.920;2023-12-29T12:25:08;6.72;;;4.38;;
42518;SDS011;28147;47.520;18.920;2023-12-29T12:27:37;5.60;;;3.22;;
42518;SDS011;28147;47.520;18.920;2023-12-29T12:30:04;7.95;;;4.13;;
42518;SDS011;28147;47.520;18.920;2023-12-29T12:32:29;9.32;;;4.45;;
42518;SDS011;28147;47.520;18.920;2023-12-29T12:34:55;6.57;;;3.05;;
42518;SDS011;28147;47.520;18.920;2023-12-29T12:37:21;5.15;;;3.10;;
42518;SDS011;28147;47.520;18.920;2023-12-29T12:39:50;7.55;;;4.10;;
42518;SDS011;28147;47.520;18.920;2023-12-29T12:42:16;6.57;;;3.28;;
42518;SDS011;28147;47.520;18.920;2023-12-29T12:44:47;6.90;;;3.30;;
42518;SDS011;28147;47.520;18.920;2023-12-29T12:47:16;8.38;;;3.75;;
42518;SDS011;28147;47.520;18.920;2023-12-29T12:49:48;7.85;;;3.67;;
42518;SDS011;28147;47.520;18.920;2023-12-29T12:52:13;7.15;;;3.97;;
42518;SDS011;28147;47.520;18.920;2023-12-29T12:54:38;7.80;;;4.10;;
42518;SDS011;28147;47.520;18.920;2023-12-29T12:57:04;9.50;;;4.10;;
42518;SDS011;28147;47.520;18.920;2023-12-29T12:59:30;8.55;;;4.85;;
42518;SDS011;28147;47.520;18.920;2023-12-29T13:01:57;12.00;;;5.63;;
42518;SDS011;28147;47.520;18.920;2023-12-29T13:04:22;10.15;;;5.10;;
42518;SDS011;28147;47.520;18.920;2023-12-29T13:06:48;9.27;;;5.15;;
42518;SDS011;28147;47.520;18.920;2023-12-29T13:09:13;9.25;;;4.85;;
42518;SDS011;28147;47.520;18.920;2023-12-29T13:11:42;10.98;;;5.07;;
42518;SDS011;28147;47.520;18.920;2023-12-29T13:14:08;9.38;;;5.15;;
42518;SDS011;28147;47.520;18.920;2023-12-29T13:16:36;7.60;;;4.90;;
42518;SDS011;28147;47.520;18.920;2023-12-29T13:19:22;8.00;;;4.60;;
42518;SDS011;28147;47.520;18.920;2023-12-29T13:21:52;8.10;;;5.13;;
42518;SDS011;28147;47.520;18.920;2023-12-29T13:24:21;14.88;;;6.07;;
42518;SDS011;28147;47.520;18.920;2023-12-29T13:26:47;9.75;;;5.90;;
42518;SDS011;28147;47.520;18.920;2023-12-29T13:29:17;10.90;;;6.35;;
42518;SDS011;28147;47.520;18.920;2023-12-29T13:31:44;12.82;;;6.65;;
42518;SDS011;28147;47.520;18.920;2023-12-29T13:34:12;13.48;;;6.13;;
42518;SDS011;28147;47.520;18.920;2023-12-29T13:36:49;13.80;;;7.53;;
42518;SDS011;28147;47.520;18.920;2023-12-29T13:41:51;14.18;;;7.88;;
42518;SDS011;28147;47.520;18.920;2023-12-29T13:44:17;15.10;;;8.90;;
42518;SDS011;28147;47.520;18.920;2023-12-29T13:46:45;19.15;;;8.20;;
42518;SDS011;28147;47.520;18.920;2023-12-29T13:49:11;12.45;;;7.18;;
42518;SDS011;28147;47.520;18.920;2023-12-29T13:51:37;11.45;;;6.50;;
42518;SDS011;28147;47.520;18.920;2023-12-29T13:54:02;15.43;;;5.88;;
42518;SDS011;28147;47.520;18.920;2023-12-29T13:56:28;8.63;;;4.60;;
42518;SDS011;28147;47.520;18.920;2023-12-29T13:58:54;10.57;;;4.55;;
42518;SDS011;28147;47.520;18.920;2023-12-29T14:03:31;9.73;;;4.78;;
42518;SDS011;28147;47.520;18.920;2023-12-29T14:06:07;7.00;;;4.07;;
42518;SDS011;28147;47.520;18.920;2023-12-29T14:08:33;11.15;;;5.07;;
42518;SDS011;28147;47.520;18.920;2023-12-29T14:11:08;10.23;;;6.43;;
42518;SDS011;28147;47.520;18.920;2023-12-29T14:13:34;15.20;;;8.35;;
42518;SDS011;28147;47.520;18.920;2023-12-29T14:16:01;17.73;;;10.35;;
42518;SDS011;28147;47.520;18.920;2023-12-29T14:23:55;16.30;;;9.40;;
42518;SDS011;28147;47.520;18.920;2023-12-29T14:26:24;17.27;;;10.60;;
42518;SDS011;28147;47.520;18.920;2023-12-29T14:30:18;13.70;;;8.30;;
42518;SDS011;28147;47.520;18.920;2023-12-29T14:32:44;14.35;;;8.70;;
42518;SDS011;28147;47.520;18.920;2023-12-29T14:36:30;13.18;;;8.65;;
42518;SDS011;28147;47.520;18.920;2023-12-29T14:38:57;16.30;;;8.88;;
42518;SDS011;28147;47.520;18.920;2023-12-29T14:41:22;13.75;;;8.68;;
42518;SDS011;28147;47.520;18.920;2023-12-29T14:43:47;13.15;;;8.40;;
42518;SDS011;28147;47.520;18.920;2023-12-29T14:46:13;13.52;;;8.02;;
42518;SDS011;28147;47.520;18.920;2023-12-29T14:48:38;11.95;;;8.20;;
42518;SDS011;28147;47.520;18.920;2023-12-29T14:51:04;12.82;;;7.65;;
42518;SDS011;28147;47.520;18.920;2023-12-29T14:53:29;14.95;;;8.10;;
42518;SDS011;28147;47.520;18.920;2023-12-29T14:55:55;14.07;;;8.77;;
42518;SDS011;28147;47.520;18.920;2023-12-29T14:58:20;12.98;;;8.07;;
42518;SDS011;28147;47.520;18.920;2023-12-29T15:06:46;15.23;;;8.67;;
42518;SDS011;28147;47.520;18.920;2023-12-29T15:09:11;15.30;;;9.43;;
42518;SDS011;28147;47.520;18.920;2023-12-29T15:13:49;16.52;;;8.52;;
42518;SDS011;28147;47.520;18.920;2023-12-29T15:16:15;14.45;;;7.70;;
42518;SDS011;28147;47.520;18.920;2023-12-29T15:18:41;15.32;;;9.07;;
42518;SDS011;28147;47.520;18.920;2023-12-29T15:21:07;13.30;;;8.05;;
42518;SDS011;28147;47.520;18.920;2023-12-29T15:23:32;17.20;;;9.43;;
42518;SDS011;28147;47.520;18.920;2023-12-29T15:25:58;17.13;;;9.32;;
42518;SDS011;28147;47.520;18.920;2023-12-29T15:28:23;16.33;;;9.82;;
42518;SDS011;28147;47.520;18.920;2023-12-29T15:30:49;14.77;;;9.10;;
42518;SDS011;28147;47.520;18.920;2023-12-29T15:33:15;14.27;;;8.70;;
42518;SDS011;28147;47.520;18.920;2023-12-29T15:35:40;12.75;;;8.77;;
42518;SDS011;28147;47.520;18.920;2023-12-29T15:38:06;15.30;;;9.43;;
42518;SDS011;28147;47.520;18.920;2023-12-29T15:40:32;15.07;;;9.35;;
42518;SDS011;28147;47.520;18.920;2023-12-29T15:42:57;16.33;;;8.75;;
42518;SDS011;28147;47.520;18.920;2023-12-29T15:45:23;13.75;;;8.90;;
42518;SDS011;28147;47.520;18.920;2023-12-29T15:47:48;19.17;;;9.38;;
42518;SDS011;28147;47.520;18.920;2023-12-29T15:50:14;15.75;;;9.10;;
42518;SDS011;28147;47.520;18.920;2023-12-29T15:52:39;14.70;;;8.88;;
42518;SDS011;28147;47.520;18.920;2023-12-29T15:55:05;13.32;;;8.73;;
42518;SDS011;28147;47.520;18.920;2023-12-29T15:57:32;14.52;;;7.82;;
42518;SDS011;28147;47.520;18.920;2023-12-29T15:59:57;14.32;;;8.25;;
42518;SDS011;28147;47.520;18.920;2023-12-29T16:02:24;16.67;;;9.35;;
42518;SDS011;28147;47.520;18.920;2023-12-29T16:04:51;12.70;;;8.20;;
42518;SDS011;28147;47.520;18.920;2023-12-29T16:07:16;15.40;;;8.65;;
42518;SDS011;28147;47.520;18.920;2023-12-29T16:09:42;14.40;;;8.57;;
42518;SDS011;28147;47.520;18.920;2023-12-29T16:12:07;14.73;;;7.70;;
42518;SDS011;28147;47.520;18.920;2023-12-29T16:14:32;13.43;;;8.45;;
42518;SDS011;28147;47.520;18.920;2023-12-29T16:16:58;15.18;;;9.60;;
42518;SDS011;28147;47.520;18.920;2023-12-29T16:19:24;14.20;;;8.90;;
42518;SDS011;28147;47.520;18.920;2023-12-29T16:21:49;14.85;;;8.55;;
42518;SDS011;28147;47.520;18.920;2023-12-29T16:24:14;15.05;;;9.40;;
42518;SDS011;28147;47.520;18.920;2023-12-29T16:26:43;14.43;;;9.07;;
42518;SDS011;28147;47.520;18.920;2023-12-29T16:29:09;16.77;;;9.48;;
42518;SDS011;28147;47.520;18.920;2023-12-29T16:31:34;17.65;;;10.00;;
42518;SDS011;28147;47.520;18.920;2023-12-29T16:34:01;16.17;;;9.85;;
42518;SDS011;28147;47.520;18.920;2023-12-29T16:36:26;16.20;;;9.15;;
42518;SDS011;28147;47.520;18.920;2023-12-29T16:38:51;13.95;;;8.95;;
42518;SDS011;28147;47.520;18.920;2023-12-29T16:41:17;15.55;;;9.60;;
42518;SDS011;28147;47.520;18.920;2023-12-29T16:43:44;18.05;;;10.23;;
42518;SDS011;28147;47.520;18.920;2023-12-29T16:46:09;25.60;;;13.45;;
42518;SDS011;28147;47.520;18.920;2023-12-29T16:48:35;17.38;;;10.70;;
42518;SDS011;28147;47.520;18.920;2023-12-29T16:51:00;20.55;;;13.43;;
42518;SDS011;28147;47.520;18.920;2023-12-29T16:53:26;23.98;;;14.15;;
42518;SDS011;28147;47.520;18.920;2023-12-29T16:55:52;19.65;;;12.98;;
42518;SDS011;28147;47.520;18.920;2023-12-29T16:58:17;20.20;;;13.38;;
42518;SDS011;28147;47.520;18.920;2023-12-29T17:00:45;18.70;;;10.65;;
42518;SDS011;28147;47.520;18.920;2023-12-29T17:03:14;18.47;;;11.53;;
42518;SDS011;28147;47.520;18.920;2023-12-29T17:05:40;16.50;;;10.40;;
42518;SDS011;28147;47.520;18.920;2023-12-29T17:08:06;19.30;;;10.55;;
42518;SDS011;28147;47.520;18.920;2023-12-29T17:10:31;21.08;;;9.85;;
42518;SDS011;28147;47.520;18.920;2023-12-29T17:12:57;16.45;;;9.82;;
42518;SDS011;28147;47.520;18.920;2023-12-29T17:15:22;12.82;;;8.60;;
42518;SDS011;28147;47.520;18.920;2023-12-29T17:17:47;16.40;;;8.82;;
42518;SDS011;28147;47.520;18.920;2023-12-29T17:20:13;13.82;;;7.65;;
42518;SDS011;28147;47.520;18.920;2023-12-29T17:22:38;12.88;;;7.68;;
42518;SDS011;28147;47.520;18.920;2023-12-29T17:25:04;10.68;;;7.03;;
42518;SDS011;28147;47.520;18.920;2023-12-29T17:27:30;13.13;;;7.75;;
42518;SDS011;28147;47.520;18.920;2023-12-29T17:29:56;11.95;;;7.07;;
42518;SDS011;28147;47.520;18.920;2023-12-29T17:32:21;12.25;;;6.43;;
42518;SDS011;28147;47.520;18.920;2023-12-29T17:44:44;8.98;;;5.63;;
42518;SDS011;28147;47.520;18.920;2023-12-29T20:14:10;11.18;;;6.10;;
42518;SDS011;28147;47.520;18.920;2023-12-29T20:16:36;9.48;;;5.65;;
42518;SDS011;28147;47.520;18.920;2023-12-29T21:05:10;7.57;;;4.35;;
42518;SDS011;28147;47.520;18.920;2023-12-29T21:08:31;8.50;;;4.47;;
42518;SDS011;28147;47.520;18.920;2023-12-29T21:21:27;7.85;;;4.90;;
42518;SDS011;28147;47.520;18.920;2023-12-29T21:23:52;8.95;;;4.90;;
42518;SDS011;28147;47.520;18.920;2023-12-29T21:26:20;8.20;;;4.90;;
42518;SDS011;28147;47.520;18.920;2023-12-29T21:30:59;9.40;;;5.18;;
42518;SDS011;28147;47.520;18.920;2023-12-29T21:33:58;9.45;;;5.10;;
42518;SDS011;28147;47.520;18.920;2023-12-29T21:36:28;8.50;;;4.97;;
42518;SDS011;28147;47.520;18.920;2023-12-29T21:38:54;10.32;;;5.75;;
42518;SDS011;28147;47.520;18.920;2023-12-29T21:51:34;8.27;;;4.80;;
42518;SDS011;28147;47.520;18.920;2023-12-29T21:53:59;9.70;;;5.65;;
42518;SDS011;28147;47.520;18.920;2023-12-29T21:56:25;8.75;;;5.13;;
42518;SDS011;28147;47.520;18.920;2023-12-29T21:58:50;9.57;;;5.30;;
42518;SDS011;28147;47.520;18.920;2023-12-29T22:04:01;9.85;;;5.53;;
42518;SDS011;28147;47.520;18.920;2023-12-29T22:06:28;9.80;;;5.88;;
42518;SDS011;28147;47.520;18.920;2023-12-29T22:08:55;10.43;;;5.40;;
42518;SDS011;28147;47.520;18.920;2023-12-29T22:13:53;7.32;;;4.45;;
42518;SDS011;28147;47.520;18.920;2023-12-29T22:17:13;11.98;;;4.97;;
42518;SDS011;28147;47.520;18.920;2023-12-29T22:19:38;9.13;;;5.30;;
42518;SDS011;28147;47.520;18.920;2023-12-29T22:22:14;11.40;;;5.68;;
42518;SDS011;28147;47.520;18.920;2023-12-29T22:26:39;10.38;;;5.40;;
42518;SDS011;28147;47.520;18.920;2023-12-29T22:31:39;10.57;;;4.78;;
42518;SDS011;28147;47.520;18.920;2023-12-29T22:34:05;14.50;;;5.60;;
42518;SDS011;28147;47.520;18.920;2023-12-29T22:36:32;9.27;;;5.43;;
42518;SDS011;28147;47.520;18.920;2023-12-29T22:38:57;11.55;;;5.75;;
42518;SDS011;28147;47.520;18.920;2023-12-29T22:41:22;12.88;;;6.25;;
42518;SDS011;28147;47.520;18.920;2023-12-29T22:43:48;10.07;;;5.32;;
42518;SDS011;28147;47.520;18.920;2023-12-29T22:46:14;10.98;;;5.72;;
42518;SDS011;28147;47.520;18.920;2023-12-29T22:48:47;8.80;;;4.93;;
42518;SDS011;28147;47.520;18.920;2023-12-29T22:51:13;10.32;;;4.97;;
42518;SDS011;28147;47.520;18.920;2023-12-29T22:53:39;7.57;;;5.00;;
42518;SDS011;28147;47.520;18.920;2023-12-29T22:56:05;10.43;;;4.65;;
42518;SDS011;28147;47.520;18.920;2023-12-29T22:58:30;7.85;;;4.57;;
42518;SDS011;28147;47.520;18.920;2023-12-29T23:02:06;8.13;;;4.72;;
42518;SDS011;28147;47.520;18.920;2023-12-29T23:06:54;8.18;;;4.72;;
42518;SDS011;28147;47.520;18.920;2023-12-29T23:09:20;8.82;;;4.40;;
42518;SDS011;28147;47.520;18.920;2023-12-29T23:11:45;7.15;;;4.00;;
42518;SDS011;28147;47.520;18.920;2023-12-29T23:14:11;8.23;;;4.50;;
42518;SDS011;28147;47.520;18.920;2023-12-29T23:16:36;6.85;;;4.07;;
42518;SDS011;28147;47.520;18.920;2023-12-29T23:21:15;7.10;;;3.83;;
42518;SDS011;28147;47.520;18.920;2023-12-29T23:23:40;6.78;;;3.60;;
42518;SDS011;28147;47.520;18.920;2023-12-29T23:26:06;6.50;;;3.60;;